Singapore Payalebar, Singapore

12:49 PM SGT on December 25, 2014 (GMT +0800)
Thomson | Change Station
CLOSE
Current Station
Personal Weather Station
Location: Singapore, SINGAPORE
Elevation: 80 ft
Nearby Weather Stations

Elev 80 ft 1.36 °N, 103.83 °E | Updated 13 seconds ago

Mostly Cloudy
Mostly Cloudy
85.1 °F
Feels Like 98 °F
N
0.0
Wind Variable Wind from SSE
Gusts 0.0 mph

Today
High -- | Low -- °F
--% Chance of Precip.
Yesterday
High -- | Low -- °F
Precip. -- in
7:02 AM 7:05 PM
Waxing Crescent, 13% visible
Pressure 29.80 in
Visibility 6.2 miles
Clouds Few 1800 ft
Mostly Cloudy 30000 ft
Heat Index 98 °F
Dew Point 79 °F
Humidity 83%
Rainfall 0.00 in
Snow Depth Not available.
UV 7 out of 12
Pollen Not available.
Air Quality Not available.
Flu Activity Not available.
METAR WSSS 250430Z 19005KT 150V250 9999 FEW018TCU BKN300 30/25 Q1009 NOSIG

More Conditions Fewer Conditions

Pressure 29.80 in
Visibility 6.2 miles
Clouds Few 1800 ft
Mostly Cloudy 30000 ft
Heat Index 98 °F
Dew Point 79 °F
Humidity 83%
Rainfall 0.00 in
Snow Depth Not available.
UV 7 out of 12
Pollen Not available.
Air Quality Not available.
Flu Activity Not available.
METAR WSSS 250430Z 19005KT 150V250 9999 FEW018TCU BKN300 30/25 Q1009 NOSIG

More Conditions Fewer Conditions

10-Day Weather Forecast

Almanac

Astronomy

Dec. 25, 2014 Rise Set
Actual Time
Civil Twilight
Nautical Twilight
Astronomical Twilight
Moon
Length of Visible Light
Length of Day
Tomorrow will be .
, % of the Moon is Illuminated

Today's Extremes

Country Highs Country Lows

Community

WunderPhotos

Upload Photos

1,780,238 photos uploaded!

WunderBlogs® & News

Nearby

Air Quality

  Air Quality AQ Index Pollutant
Not available.

Snow Depth

Station Depth Elevation

Earthquake Activity

City Distance Mag. Time & Date
Minimum magnitude displayed is 2.5.

Coastal Water Temperatures

Place Temperature

Nearby Weather Stations